Aviation Digital Data Service (ADDS)

Output produced by METARs form (2032 UTC 02 March 2015)
found at http://aviationweather.gov/adds/metars/
 
KHPN 021742Z 0218/0318 31019G31KT P6SM SCT040 
     FM022300 31010KT P6SM FEW040 
     FM030500 31005KT P6SM SCT250 
     FM031400 VRB04KT P6SM FEW015 SCT250 AMD NOT SKED